Airports Egypt Hurghada International Airport

Hurghada International Airport (HEGN / HRG)

Facts about Hurghada International Airport

Name Hurghada International Airport
City Hurghada
Country Egypt
ICAO code HEGN
IATA code HRG
Elevation 15.8496 meters (52 feet)

Weather

METAR

Metar data retrieved Saturday, 20 July 2024 at 00:55 UTC (9 minutes ago)

HEGN 200000Z 31007KT CAVOK 31/08 Q1001 NOSIG

Live traffic

Navigraph Charts (account required)